createdAt,value
2023-02-11T00:00:45.569Z,-1.46
2023-02-11T00:03:13.040Z,-1.44
2023-02-11T00:05:40.220Z,-1.51
2023-02-11T00:08:07.416Z,-1.46
2023-02-11T00:10:34.807Z,-1.52
2023-02-11T00:13:01.990Z,-1.38
2023-02-11T00:15:29.160Z,-1.40
2023-02-11T00:17:56.575Z,-1.46
2023-02-11T00:20:23.680Z,-1.51
2023-02-11T00:22:50.818Z,-1.66
2023-02-11T00:25:18.203Z,-1.75
2023-02-11T00:27:45.328Z,-1.75
2023-02-11T00:30:13.371Z,-1.85
2023-02-11T00:32:42.642Z,-1.93
2023-02-11T00:35:09.812Z,-1.90
2023-02-11T00:37:37.047Z,-1.97
2023-02-11T00:40:06.807Z,-1.98
2023-02-11T00:42:35.708Z,-2.00
2023-02-11T00:45:03.720Z,-2.00
2023-02-11T00:47:31.121Z,-1.97
2023-02-11T00:49:58.294Z,-1.91
2023-02-11T00:52:27.651Z,-1.91
2023-02-11T00:54:55.072Z,-1.89
2023-02-11T00:57:22.536Z,-1.87
2023-02-11T00:59:50.681Z,-1.92
2023-02-11T01:02:19.078Z,-1.99
2023-02-11T01:04:46.210Z,-2.04
2023-02-11T01:07:13.336Z,-2.15
2023-02-11T01:09:40.780Z,-2.12
2023-02-11T01:12:07.911Z,-2.05
2023-02-11T01:14:35.139Z,-2.02
2023-02-11T01:17:05.609Z,-2.03
2023-02-11T01:19:32.732Z,-2.18
2023-02-11T01:21:59.943Z,-2.28
2023-02-11T01:24:27.521Z,-2.45
2023-02-11T01:26:54.781Z,-2.55
2023-02-11T01:29:24.487Z,-2.58
2023-02-11T01:31:54.867Z,-2.69
2023-02-11T01:34:22.001Z,-2.74
2023-02-11T01:36:50.194Z,-2.77
2023-02-11T01:39:17.575Z,-2.85
2023-02-11T01:41:46.624Z,-2.91
2023-02-11T01:44:42.808Z,-2.97
2023-02-11T01:47:10.847Z,-2.98
2023-02-11T01:49:41.290Z,-3.03
2023-02-11T01:52:23.522Z,-3.08
2023-02-11T01:55:15.969Z,-3.11
2023-02-11T01:57:47.738Z,-3.18
2023-02-11T02:00:22.512Z,-3.20
2023-02-11T02:02:56.345Z,-3.27
2023-02-11T02:05:42.443Z,-3.10
2023-02-11T02:08:31.018Z,-3.22
2023-02-11T02:11:00.938Z,-3.42
2023-02-11T02:13:31.382Z,-3.49
2023-02-11T02:16:13.802Z,-3.55
2023-02-11T02:19:10.422Z,-3.58
2023-02-11T02:22:05.778Z,-3.60
2023-02-11T02:25:07.049Z,-3.60
2023-02-11T02:28:03.833Z,-3.60
2023-02-11T02:30:33.994Z,-3.59
2023-02-11T02:33:23.315Z,-3.58
2023-02-11T02:36:37.138Z,-3.50
2023-02-11T02:39:18.253Z,-3.51
2023-02-11T02:41:46.821Z,-3.53
2023-02-11T02:44:14.273Z,-3.55
2023-02-11T02:46:41.463Z,-3.58
2023-02-11T02:49:16.465Z,-3.57
2023-02-11T02:52:06.033Z,-3.66
2023-02-11T02:54:56.049Z,-3.71
2023-02-11T02:57:29.780Z,-3.69
2023-02-11T02:59:59.467Z,-3.74
2023-02-11T03:03:04.074Z,-3.81
2023-02-11T03:05:53.078Z,-3.84
2023-02-11T03:08:41.486Z,-3.87
2023-02-11T03:11:11.036Z,-3.75
2023-02-11T03:13:40.035Z,-3.79
2023-02-11T03:16:12.279Z,-3.92
2023-02-11T03:18:44.598Z,-4.04
2023-02-11T03:21:14.135Z,-4.04
2023-02-11T03:23:56.398Z,-4.05
2023-02-11T03:26:30.292Z,-4.03
2023-02-11T03:29:26.246Z,-3.99
2023-02-11T03:32:06.927Z,-3.92
2023-02-11T03:34:44.108Z,-3.88
2023-02-11T03:37:32.355Z,-3.90
2023-02-11T03:40:15.941Z,-4.02
2023-02-11T03:42:48.820Z,-4.05
2023-02-11T03:45:20.060Z,-4.05
2023-02-11T03:47:53.435Z,-4.09
2023-02-11T03:50:22.155Z,-3.99
2023-02-11T03:52:50.184Z,-3.87
2023-02-11T03:55:19.505Z,-3.76
2023-02-11T03:57:47.897Z,-3.69
2023-02-11T04:00:15.295Z,-3.66
2023-02-11T04:02:44.401Z,-3.60
2023-02-11T04:05:15.015Z,-3.48
2023-02-11T04:07:42.476Z,-3.42
2023-02-11T04:10:11.703Z,-3.24
2023-02-11T04:12:38.841Z,-3.14
2023-02-11T04:15:06.895Z,-2.94
2023-02-11T04:17:34.060Z,-2.91
2023-02-11T04:20:01.227Z,-2.85
2023-02-11T04:22:28.544Z,-2.82
2023-02-11T04:24:55.673Z,-2.82
2023-02-11T04:27:23.067Z,-2.73
2023-02-11T04:29:50.476Z,-2.74
2023-02-11T04:32:17.552Z,-2.71
2023-02-11T04:34:44.647Z,-2.66
2023-02-11T04:37:12.177Z,-2.53
2023-02-11T04:39:39.316Z,-2.50
2023-02-11T04:42:06.909Z,-2.26
2023-02-11T04:44:34.526Z,-2.22
2023-02-11T04:47:01.596Z,-2.30
2023-02-11T04:49:28.824Z,-2.30
2023-02-11T04:51:56.267Z,-2.38
2023-02-11T04:54:23.412Z,-2.36
2023-02-11T04:56:51.183Z,-2.41
2023-02-11T04:59:18.712Z,-2.41
2023-02-11T05:01:45.859Z,-2.43
2023-02-11T05:04:13.038Z,-2.27
2023-02-11T05:06:40.593Z,-2.31
2023-02-11T05:09:07.838Z,-2.34
2023-02-11T05:11:36.637Z,-2.35
2023-02-11T05:14:04.081Z,-2.44
2023-02-11T05:16:31.511Z,-2.49
2023-02-11T05:18:58.877Z,-2.53
2023-02-11T05:21:26.391Z,-2.63
2023-02-11T05:23:53.457Z,-2.67
2023-02-11T05:26:20.743Z,-2.75
2023-02-11T05:28:48.241Z,-2.81
2023-02-11T05:31:16.738Z,-2.87
2023-02-11T05:33:43.983Z,-2.94
2023-02-11T05:36:13.409Z,-2.99
2023-02-11T05:38:42.469Z,-3.07
2023-02-11T05:41:10.438Z,-3.11
2023-02-11T05:43:37.905Z,-3.14
2023-02-11T05:46:05.320Z,-3.11
2023-02-11T05:48:32.830Z,-3.22
2023-02-11T05:51:00.409Z,-3.30
2023-02-11T05:53:27.502Z,-3.33
2023-02-11T05:55:54.638Z,-3.39
2023-02-11T05:58:22.029Z,-3.45
2023-02-11T06:00:49.133Z,-3.51
2023-02-11T06:03:16.638Z,-3.53
2023-02-11T06:05:45.232Z,-3.55
2023-02-11T06:08:12.459Z,-3.57
2023-02-11T06:10:42.466Z,-3.54
2023-02-11T06:13:09.554Z,-3.48
2023-02-11T06:15:36.647Z,-3.44
2023-02-11T06:18:04.347Z,-3.37
2023-02-11T06:20:31.779Z,-3.27
2023-02-11T06:22:58.873Z,-3.11
2023-02-11T06:25:26.320Z,-2.96
2023-02-11T06:27:53.455Z,-2.76
2023-02-11T06:30:20.758Z,-2.55
2023-02-11T06:32:48.253Z,-2.33
2023-02-11T06:35:15.436Z,-2.05
2023-02-11T06:37:43.056Z,-1.79
2023-02-11T06:40:11.971Z,-1.49
2023-02-11T06:42:39.580Z,-1.13
2023-02-11T06:45:09.473Z,-0.70
2023-02-11T06:47:37.461Z,-0.44
2023-02-11T06:50:05.039Z,-0.23
2023-02-11T06:52:32.945Z,-0.15
2023-02-11T06:55:00.414Z,0.01
2023-02-11T06:57:27.492Z,0.02
2023-02-11T06:59:55.634Z,0.17
2023-02-11T07:02:23.133Z,0.29
2023-02-11T07:04:50.387Z,0.32
2023-02-11T07:07:17.457Z,0.37
2023-02-11T07:09:44.899Z,0.43
2023-02-11T07:12:12.046Z,0.45
2023-02-11T07:14:39.467Z,0.37
2023-02-11T07:17:06.860Z,0.29
2023-02-11T07:19:33.944Z,0.27
2023-02-11T07:22:01.050Z,0.34
2023-02-11T07:24:28.564Z,0.23
2023-02-11T07:26:55.655Z,0.32
2023-02-11T07:29:22.785Z,0.37
2023-02-11T07:31:50.454Z,0.64
2023-02-11T07:34:17.694Z,0.66
2023-02-11T07:36:45.238Z,0.90
2023-02-11T07:39:12.858Z,1.12
2023-02-11T07:41:40.060Z,1.34
2023-02-11T07:44:07.542Z,1.28
2023-02-11T07:46:35.833Z,1.50
2023-02-11T07:49:03.683Z,1.72
2023-02-11T07:51:31.509Z,1.79
2023-02-11T07:54:00.427Z,1.69
2023-02-11T07:56:28.778Z,1.68
2023-02-11T07:58:59.678Z,1.67
2023-02-11T08:01:28.688Z,1.91
2023-02-11T08:03:58.553Z,1.97
2023-02-11T08:06:27.734Z,1.82
2023-02-11T08:08:55.162Z,1.88
2023-02-11T08:11:27.597Z,1.97
2023-02-11T08:13:56.113Z,2.11
2023-02-11T08:16:28.926Z,2.22
2023-02-11T08:18:58.175Z,2.09
2023-02-11T08:21:25.818Z,2.16
2023-02-11T08:23:53.407Z,2.25
2023-02-11T08:26:23.408Z,2.30
2023-02-11T08:28:52.390Z,2.35
2023-02-11T08:31:33.278Z,2.49
2023-02-11T08:34:02.338Z,2.47
2023-02-11T08:36:34.789Z,2.32
2023-02-11T08:39:22.490Z,2.38
2023-02-11T08:41:53.245Z,2.44
2023-02-11T08:44:21.543Z,2.54
2023-02-11T08:46:49.073Z,2.47
2023-02-11T08:49:16.401Z,2.57
2023-02-11T08:51:44.788Z,2.56
2023-02-11T08:54:12.234Z,2.64
2023-02-11T08:56:39.432Z,2.76
2023-02-11T08:59:07.742Z,2.82
2023-02-11T09:01:35.314Z,2.81
2023-02-11T09:04:02.394Z,2.87
2023-02-11T09:06:30.357Z,2.82
2023-02-11T09:08:58.045Z,2.62
2023-02-11T09:11:28.595Z,2.57
2023-02-11T09:13:56.084Z,2.81
2023-02-11T09:16:28.412Z,2.69
2023-02-11T09:18:59.919Z,2.72
2023-02-11T09:21:28.462Z,2.58
2023-02-11T09:23:56.887Z,2.84
2023-02-11T09:26:27.134Z,3.13
2023-02-11T09:28:54.760Z,3.29
2023-02-11T09:31:24.810Z,3.64
2023-02-11T09:33:54.772Z,3.86
2023-02-11T09:36:25.354Z,4.22
2023-02-11T09:38:53.147Z,4.38
2023-02-11T09:41:23.119Z,4.49
2023-02-11T09:43:57.250Z,4.42
2023-02-11T09:46:25.880Z,4.40
2023-02-11T09:48:55.489Z,4.11
2023-02-11T09:51:49.669Z,4.14
2023-02-11T09:54:35.878Z,4.46
2023-02-11T09:57:03.248Z,4.45
2023-02-11T09:59:30.642Z,4.54
2023-02-11T10:02:14.362Z,4.35
2023-02-11T10:05:12.657Z,4.53
2023-02-11T10:07:59.058Z,4.75
2023-02-11T10:10:51.995Z,4.92
2023-02-11T10:13:42.639Z,4.84
2023-02-11T10:16:39.486Z,4.83
2023-02-11T10:19:15.622Z,4.32
2023-02-11T10:21:55.312Z,4.44
2023-02-11T10:24:22.404Z,4.46
2023-02-11T10:26:51.908Z,4.42
2023-02-11T10:29:33.854Z,4.47
2023-02-11T10:32:07.103Z,4.47
2023-02-11T10:34:39.742Z,4.27
2023-02-11T10:37:07.640Z,4.19
2023-02-11T10:39:34.743Z,4.31
2023-02-11T10:42:13.179Z,4.37
2023-02-11T10:44:56.874Z,4.40
2023-02-11T10:47:28.064Z,4.38
2023-02-11T10:50:03.168Z,4.37
2023-02-11T10:52:31.255Z,4.30
2023-02-11T10:55:00.516Z,4.39
2023-02-11T10:57:58.562Z,4.59
2023-02-11T11:00:42.957Z,4.89
2023-02-11T11:03:25.365Z,5.12
2023-02-11T11:05:58.453Z,5.18
2023-02-11T11:08:39.669Z,5.30
2023-02-11T11:11:10.247Z,5.26
2023-02-11T11:13:53.814Z,5.09
2023-02-11T11:16:26.075Z,5.04
2023-02-11T11:19:14.276Z,5.02
2023-02-11T11:21:47.404Z,5.24
2023-02-11T11:24:31.463Z,5.07
2023-02-11T11:27:01.729Z,5.30
2023-02-11T11:29:34.419Z,5.30
2023-02-11T11:32:22.019Z,5.37
2023-02-11T11:34:55.682Z,5.57
2023-02-11T11:37:27.675Z,5.68
2023-02-11T11:40:11.596Z,5.98
2023-02-11T11:42:40.429Z,6.26
2023-02-11T11:45:19.523Z,6.57
2023-02-11T11:48:15.313Z,6.76
2023-02-11T11:50:52.405Z,7.26
2023-02-11T11:53:37.992Z,6.96
2023-02-11T11:56:22.047Z,6.92
2023-02-11T11:58:50.370Z,6.87
2023-02-11T12:01:29.440Z,6.74
2023-02-11T12:04:02.905Z,6.58
2023-02-11T12:07:07.741Z,6.55
2023-02-11T12:09:59.425Z,6.86
2023-02-11T12:12:54.070Z,6.96
2023-02-11T12:15:32.902Z,7.08
2023-02-11T12:18:19.435Z,7.29
2023-02-11T12:21:08.302Z,7.05
2023-02-11T12:23:44.560Z,7.08
2023-02-11T12:26:20.385Z,7.08
2023-02-11T12:29:14.078Z,7.14
2023-02-11T12:32:32.122Z,7.23
2023-02-11T12:35:11.427Z,7.01
2023-02-11T12:38:18.730Z,6.90
2023-02-11T12:40:46.907Z,6.92
2023-02-11T12:43:16.935Z,7.04
2023-02-11T12:45:56.312Z,7.11
2023-02-11T12:48:51.850Z,7.21
2023-02-11T12:51:46.106Z,7.09
2023-02-11T12:54:35.143Z,7.01
2023-02-11T12:57:14.737Z,7.03
2023-02-11T13:00:08.258Z,7.03
2023-02-11T13:02:47.253Z,6.96
2023-02-11T13:05:55.193Z,6.97
2023-02-11T13:08:32.374Z,6.79
2023-02-11T13:11:08.053Z,6.96
2023-02-11T13:14:06.212Z,6.94
2023-02-11T13:16:45.407Z,7.20
2023-02-11T13:19:30.720Z,7.38
2023-02-11T13:22:13.020Z,7.48
2023-02-11T13:25:06.559Z,7.30
2023-02-11T13:27:44.246Z,7.46
2023-02-11T13:30:33.407Z,7.50
2023-02-11T13:33:01.022Z,7.50
2023-02-11T13:35:32.210Z,7.45
2023-02-11T13:38:01.996Z,7.57
2023-02-11T13:40:36.623Z,7.59
2023-02-11T13:43:06.507Z,7.68
2023-02-11T13:45:45.592Z,7.67
2023-02-11T13:48:30.408Z,7.48
2023-02-11T13:51:04.926Z,7.59
2023-02-11T13:53:47.574Z,7.63
2023-02-11T13:56:30.221Z,7.61
2023-02-11T13:59:01.758Z,7.55
2023-02-11T14:01:39.770Z,7.51
2023-02-11T14:04:55.114Z,7.54
2023-02-11T14:07:51.832Z,7.56
2023-02-11T14:10:49.875Z,7.58
2023-02-11T14:13:49.384Z,7.51
2023-02-11T14:16:35.599Z,7.39
2023-02-11T14:19:04.409Z,7.42
2023-02-11T14:21:38.400Z,7.34
2023-02-11T14:24:07.889Z,7.08
2023-02-11T14:26:53.611Z,6.88
2023-02-11T14:29:34.590Z,6.92
2023-02-11T14:32:40.994Z,6.83
2023-02-11T14:35:40.703Z,6.73
2023-02-11T14:38:40.093Z,6.80
2023-02-11T14:41:27.536Z,6.88
2023-02-11T14:43:59.223Z,6.78
2023-02-11T14:46:29.927Z,6.71
2023-02-11T14:49:01.280Z,6.76
2023-02-11T14:51:31.859Z,6.78
2023-02-11T14:54:13.454Z,6.71
2023-02-11T14:56:42.271Z,6.65
2023-02-11T14:59:17.521Z,6.44
2023-02-11T15:01:49.505Z,6.54
2023-02-11T15:04:28.073Z,6.46
2023-02-11T15:06:57.506Z,6.43
2023-02-11T15:09:44.194Z,6.37
2023-02-11T15:12:29.313Z,6.20
2023-02-11T15:15:00.522Z,6.15
2023-02-11T15:17:31.783Z,6.02
2023-02-11T15:20:01.898Z,6.03
2023-02-11T15:22:37.390Z,5.94
2023-02-11T15:25:07.883Z,5.93
2023-02-11T15:27:43.979Z,5.81
2023-02-11T15:30:23.416Z,5.66
2023-02-11T15:33:00.022Z,5.60
2023-02-11T15:35:36.723Z,5.64
2023-02-11T15:38:04.989Z,5.72
2023-02-11T15:40:34.733Z,5.54
2023-02-11T15:43:07.655Z,5.61
2023-02-11T15:45:42.459Z,5.66
2023-02-11T15:48:23.903Z,5.58
2023-02-11T15:50:55.161Z,5.55
2023-02-11T15:53:30.200Z,5.43
2023-02-11T15:56:04.970Z,5.30
2023-02-11T15:58:37.862Z,5.15
2023-02-11T16:01:06.752Z,5.13
2023-02-11T16:03:34.613Z,5.00
2023-02-11T16:06:27.995Z,4.89
2023-02-11T16:09:23.807Z,4.82
2023-02-11T16:11:50.776Z,4.87
2023-02-11T16:14:36.937Z,4.76
2023-02-11T16:17:22.346Z,4.69
2023-02-11T16:19:52.295Z,4.67
2023-02-11T16:22:24.708Z,4.64
2023-02-11T16:24:54.803Z,4.49
2023-02-11T16:27:34.922Z,4.36
2023-02-11T16:30:02.668Z,4.29
2023-02-11T16:32:30.299Z,4.28
2023-02-11T16:35:00.713Z,4.15
2023-02-11T16:37:28.249Z,4.12
2023-02-11T16:39:56.750Z,4.10
2023-02-11T16:42:24.445Z,4.16
2023-02-11T16:44:51.826Z,4.11
2023-02-11T16:47:27.608Z,4.14
2023-02-11T16:49:56.256Z,4.32
2023-02-11T16:52:23.686Z,4.33
2023-02-11T16:54:50.935Z,4.33
2023-02-11T16:57:24.246Z,4.34
2023-02-11T16:59:52.309Z,4.33
2023-02-11T17:02:39.898Z,4.34
2023-02-11T17:05:12.133Z,4.31
2023-02-11T17:07:39.464Z,4.44
2023-02-11T17:10:17.918Z,4.43
2023-02-11T17:12:45.226Z,4.46
2023-02-11T17:15:12.272Z,4.39
2023-02-11T17:17:39.290Z,4.39
2023-02-11T17:20:08.628Z,4.37
2023-02-11T17:22:35.650Z,4.35
2023-02-11T17:25:02.639Z,4.34
2023-02-11T17:27:30.006Z,4.35
2023-02-11T17:29:57.114Z,4.25
2023-02-11T17:32:24.211Z,4.10
2023-02-11T17:34:53.076Z,3.93
2023-02-11T17:37:20.155Z,3.75
2023-02-11T17:39:49.062Z,3.64
2023-02-11T17:42:16.549Z,3.53
2023-02-11T17:44:44.425Z,3.49
2023-02-11T17:47:12.772Z,3.42
2023-02-11T17:49:40.687Z,3.50
2023-02-11T17:52:07.820Z,3.65
2023-02-11T17:54:35.012Z,3.72
2023-02-11T17:57:02.520Z,3.89
2023-02-11T17:59:35.296Z,3.88
2023-02-11T18:02:04.262Z,3.91
2023-02-11T18:04:32.779Z,3.95
2023-02-11T18:06:59.874Z,3.91
2023-02-11T18:09:26.989Z,3.85
2023-02-11T18:11:54.403Z,3.79
2023-02-11T18:14:22.953Z,3.78
2023-02-11T18:16:52.254Z,3.91
2023-02-11T18:19:20.199Z,3.86
2023-02-11T18:21:50.200Z,3.79
2023-02-11T18:24:17.506Z,3.76
2023-02-11T18:26:44.818Z,3.88
2023-02-11T18:29:11.882Z,3.85
2023-02-11T18:31:39.577Z,3.83
2023-02-11T18:34:08.401Z,3.80
2023-02-11T18:36:35.927Z,3.80
2023-02-11T18:39:05.020Z,3.78
2023-02-11T18:41:32.651Z,3.71
2023-02-11T18:44:02.901Z,3.67
2023-02-11T18:46:31.225Z,3.57
2023-02-11T18:48:58.620Z,3.53
2023-02-11T18:51:26.021Z,3.47
2023-02-11T18:53:53.248Z,3.47
2023-02-11T18:56:24.571Z,3.52
2023-02-11T18:58:52.120Z,3.48
2023-02-11T19:01:21.305Z,3.50
2023-02-11T19:03:48.778Z,3.49
2023-02-11T19:06:24.954Z,3.58
2023-02-11T19:08:59.700Z,3.53
2023-02-11T19:11:49.055Z,3.41
2023-02-11T19:14:19.847Z,3.46
2023-02-11T19:16:47.909Z,3.48
2023-02-11T19:19:15.082Z,3.50
2023-02-11T19:21:44.462Z,3.61
2023-02-11T19:24:13.281Z,3.67
2023-02-11T19:26:40.405Z,3.80
2023-02-11T19:29:08.397Z,3.87
2023-02-11T19:31:35.723Z,3.84
2023-02-11T19:34:03.893Z,3.77
2023-02-11T19:36:31.372Z,3.86
2023-02-11T19:39:02.112Z,3.92
2023-02-11T19:41:30.196Z,4.02
2023-02-11T19:43:57.854Z,3.96
2023-02-11T19:46:26.697Z,3.92
2023-02-11T19:48:54.200Z,3.83
2023-02-11T19:51:22.285Z,3.88
2023-02-11T19:53:49.411Z,3.79
2023-02-11T19:56:19.761Z,3.82
2023-02-11T19:58:48.148Z,3.89
2023-02-11T20:01:18.921Z,3.75
2023-02-11T20:03:52.575Z,3.74
2023-02-11T20:06:24.935Z,3.71
2023-02-11T20:08:58.581Z,3.74
2023-02-11T20:11:28.021Z,3.70
2023-02-11T20:13:56.015Z,3.72
2023-02-11T20:16:37.118Z,3.79
2023-02-11T20:19:17.621Z,3.86
2023-02-11T20:21:47.396Z,3.95
2023-02-11T20:24:18.877Z,4.06
2023-02-11T20:26:48.350Z,3.99
2023-02-11T20:29:17.865Z,4.08
2023-02-11T20:31:45.452Z,4.16
2023-02-11T20:34:12.926Z,4.16
2023-02-11T20:36:40.900Z,4.09
2023-02-11T20:39:08.237Z,4.03
2023-02-11T20:41:39.841Z,4.10
2023-02-11T20:44:10.205Z,4.10
2023-02-11T20:46:40.144Z,4.06
2023-02-11T20:49:09.782Z,4.03
2023-02-11T20:51:37.468Z,4.09
2023-02-11T20:54:06.310Z,4.09
2023-02-11T20:56:36.628Z,4.17
2023-02-11T20:59:04.671Z,4.20
2023-02-11T21:01:33.474Z,4.12
2023-02-11T21:04:04.018Z,4.15
2023-02-11T21:06:35.789Z,4.21
2023-02-11T21:09:05.350Z,4.22
2023-02-11T21:11:32.587Z,4.26
2023-02-11T21:14:01.908Z,4.31
2023-02-11T21:16:29.478Z,4.34
2023-02-11T21:18:56.884Z,4.28
2023-02-11T21:21:24.345Z,4.28
2023-02-11T21:23:52.203Z,4.25
2023-02-11T21:26:19.332Z,4.22
2023-02-11T21:28:46.543Z,4.12
2023-02-11T21:31:26.033Z,4.04
2023-02-11T21:33:55.146Z,3.99
2023-02-11T21:36:23.983Z,4.03
2023-02-11T21:38:51.332Z,4.00
2023-02-11T21:41:21.822Z,4.09
2023-02-11T21:43:50.025Z,4.08
2023-02-11T21:46:18.009Z,4.09
2023-02-11T21:48:45.284Z,4.07
2023-02-11T21:51:19.374Z,4.09
2023-02-11T21:53:47.241Z,4.20
2023-02-11T21:56:17.723Z,4.17
2023-02-11T21:58:46.218Z,4.20
2023-02-11T22:01:19.369Z,4.23
2023-02-11T22:03:47.300Z,4.24
2023-02-11T22:06:26.059Z,4.31
2023-02-11T22:08:54.861Z,4.21
2023-02-11T22:11:22.185Z,4.20
2023-02-11T22:13:56.498Z,4.14
2023-02-11T22:16:24.293Z,4.04
2023-02-11T22:18:51.957Z,3.99
2023-02-11T22:21:22.735Z,3.81
2023-02-11T22:23:51.350Z,3.78
2023-02-11T22:26:21.773Z,3.73
2023-02-11T22:28:49.865Z,3.70
2023-02-11T22:31:19.922Z,3.73
2023-02-11T22:33:47.195Z,3.69
2023-02-11T22:36:23.182Z,3.61
2023-02-11T22:38:50.663Z,3.65
2023-02-11T22:41:19.053Z,3.67
2023-02-11T22:43:46.668Z,3.63
2023-02-11T22:46:17.454Z,3.64
2023-02-11T22:48:45.130Z,3.63
2023-02-11T22:51:16.188Z,3.57
2023-02-11T22:53:46.523Z,3.56
2023-02-11T22:56:15.655Z,3.58
2023-02-11T22:58:43.701Z,3.57
2023-02-11T23:01:12.752Z,3.58
2023-02-11T23:03:40.286Z,3.50
2023-02-11T23:06:08.134Z,3.56
2023-02-11T23:08:35.498Z,3.47
2023-02-11T23:11:25.529Z,3.41
2023-02-11T23:13:54.610Z,3.47
2023-02-11T23:16:25.716Z,3.50
2023-02-11T23:18:54.229Z,3.53
2023-02-11T23:21:23.129Z,3.56
2023-02-11T23:23:58.032Z,3.48
2023-02-11T23:26:26.290Z,3.49
2023-02-11T23:28:53.495Z,3.54
2023-02-11T23:31:28.052Z,3.50
2023-02-11T23:33:55.493Z,3.50
2023-02-11T23:36:23.302Z,3.51
2023-02-11T23:38:50.442Z,3.50
2023-02-11T23:41:18.075Z,3.54
2023-02-11T23:43:49.284Z,3.62
2023-02-11T23:46:16.364Z,3.75
2023-02-11T23:48:43.756Z,3.69
2023-02-11T23:51:11.052Z,3.71
2023-02-11T23:53:39.088Z,3.70
2023-02-11T23:56:11.407Z,3.76
2023-02-11T23:58:38.484Z,3.78
